Thurman, New York
Current Conditions -  °F | °C
As of 4:53 AM on Sunday 21 Dec 2014 (Local Time) from KGFL Reporting Station
Overcast Overcast  
Wind Chill: 24°   Ceiling: 2900
Heat Index: 24°   Visibility: 10mi
Dew Point: 19°   Wind: 3mph
Humidity: 81%   Direction: 70°ENE
Pressure: 30.3"   Gusts: NA
Location:  43.4835°N, 73.8027°W
Report Text: KGFL 210953Z AUTO 07003KT 10SM OVC029 M04/M07 A3030 RMK AO2 SLP272 T10441072
Loading
Personal Weather Stations






























Interactive Weather Map New forecast layout! Learn more

10-Day Weather Forecast

Advertisements
Track Severe Weather on mobile